Station 22103
Data from this station are not quality controlled by NDBC
Previous 25 observations
TIME (GMT) |
LAT deg |
LON deg |
 WDIR |
 WSPD kts |
 WGST kts |
 WVHT ft |
 DPD sec |
 PRES in |
 PTDY in |
 ATMP °F |
 WTMP °F |
 DEWP °F |
| 2026-04-18 1100 | 34.00 | 127.50 | E | 10 | - | 3.3 | 1 | - | - | 61.5 | 63.0 | - |
| 2026-04-18 1000 | 34.00 | 127.50 | E | 10 | - | 3.3 | 1 | - | - | 61.2 | 62.8 | - |
| 2026-04-18 0900 | 34.00 | 127.50 | ENE | 10 | - | 4.9 | 1 | - | - | 60.6 | 62.6 | - |
| 2026-04-18 0800 | 34.00 | 127.50 | E | 12 | - | 4.9 | 1 | - | - | 61.2 | 62.4 | - |
| 2026-04-18 0700 | 34.00 | 127.50 | E | 14 | - | 4.9 | 1 | - | - | 61.7 | 62.2 | - |
| 2026-04-18 0600 | 34.00 | 127.50 | E | 14 | - | 4.9 | 1 | - | - | 61.7 | 62.1 | - |
| 2026-04-18 0500 | 34.00 | 127.50 | E | 14 | - | 4.9 | 1 | - | - | 61.7 | 62.1 | - |
| 2026-04-18 0400 | 34.00 | 127.50 | E | 14 | - | 4.9 | 1 | - | - | 61.7 | 61.9 | - |
| 2026-04-18 0300 | 34.00 | 127.50 | E | 17 | - | 4.9 | 1 | - | - | 61.5 | 62.1 | - |
| 2026-04-18 0200 | 34.00 | 127.50 | E | 17 | - | 4.9 | 1 | - | - | 61.3 | 62.2 | - |
| 2026-04-18 0100 | 34.00 | 127.50 | E | 19 | - | 4.9 | 1 | - | - | 60.6 | 62.1 | - |
| 2026-04-18 0000 | 34.00 | 127.50 | E | 19 | - | 4.9 | 1 | - | - | 60.6 | 61.9 | - |
| 2026-04-17 2300 | 34.00 | 127.50 | ENE | 19 | - | 4.9 | 1 | - | - | 59.4 | 62.1 | - |
| 2026-04-17 2200 | 34.00 | 127.50 | ENE | 21 | - | 4.9 | 1 | - | - | 59.5 | 61.9 | - |
| 2026-04-17 2100 | 34.00 | 127.50 | ENE | 17 | - | 4.9 | 1 | - | - | 59.5 | 61.9 | - |
| 2026-04-17 2000 | 34.00 | 127.50 | ENE | 19 | - | 4.9 | 1 | - | - | 60.6 | 62.4 | - |
| 2026-04-17 1900 | 34.00 | 127.50 | E | 17 | - | 4.9 | 1 | - | - | 59.9 | 62.4 | - |
| 2026-04-17 1800 | 34.00 | 127.50 | E | 16 | - | 4.9 | 1 | - | - | 60.4 | 62.6 | - |
| 2026-04-17 1700 | 34.00 | 127.50 | E | 17 | - | 4.9 | 1 | - | - | 60.1 | 62.8 | - |
| 2026-04-17 1600 | 34.00 | 127.50 | E | 16 | - | 4.9 | 1 | - | - | 59.7 | 62.6 | - |
| 2026-04-17 1500 | 34.00 | 127.50 | E | 16 | - | 4.9 | 1 | - | - | 59.5 | 62.8 | - |
| 2026-04-17 1400 | 34.00 | 127.50 | E | 14 | - | 4.9 | 1 | - | - | 59.5 | 62.6 | - |
| 2026-04-17 1300 | 34.00 | 127.50 | E | 14 | - | 4.9 | 1 | - | - | 60.1 | 62.4 | - |
| 2026-04-17 1200 | 34.00 | 127.50 | ESE | 14 | - | 4.9 | 1 | - | - | 59.9 | 61.5 | - |